Time;durP1;ratioP1;P1;durP2;ratioP2;P2;SDS_P1;SDS_P2;PMS_P1;PMS_P2;Temp;Humidity;BMP_temperature;BMP_pressure;BME280_temperature;BME280_humidity;BME280_pressure;Samples;Min_cycle;Max_cycle;Signal;HPM_P1;HPM_P2
2023/06/25 00:01:08;;;;;;;0.47;0.47;;;25.70;78.70;;;;;;5089796;28;20201;-82
2023/06/25 00:03:36;;;;;;;0.75;0.75;;;25.70;78.70;;;;;;5118280;27;20212;-81
2023/06/25 00:06:05;;;;;;;0.35;0.35;;;25.70;78.70;;;;;;5099295;27;20635;-82
2023/06/25 00:08:33;;;;;;;1.42;1.33;;;25.70;78.60;;;;;;5104856;27;20209;-83
2023/06/25 00:11:02;;;;;;;0.57;0.55;;;25.70;78.90;;;;;;5102140;27;20196;-82
2023/06/25 00:13:30;;;;;;;0.60;0.60;;;25.70;78.70;;;;;;5106607;27;20202;-84
2023/06/25 00:15:59;;;;;;;0.30;0.30;;;25.60;78.50;;;;;;5115671;27;20198;-83
2023/06/25 00:18:29;;;;;;;2.50;0.73;;;25.70;78.60;;;;;;5105579;27;20655;-84
2023/06/25 00:20:57;;;;;;;0.52;0.50;;;25.70;78.60;;;;;;5104716;27;20194;-83
2023/06/25 00:23:25;;;;;;;1.50;0.73;;;25.70;78.70;;;;;;5101378;27;20205;-82
2023/06/25 00:25:54;;;;;;;5.28;1.98;;;25.60;78.80;;;;;;5108607;27;21003;-82
2023/06/25 00:28:22;;;;;;;2.28;1.25;;;25.60;79.70;;;;;;5095434;27;20197;-83
2023/06/25 00:30:51;;;;;;;1.25;0.98;;;25.60;80.70;;;;;;5087674;28;20204;-83
2023/06/25 00:33:20;;;;;;;0.75;0.68;;;25.60;81.90;;;;;;5105019;27;20188;-81
2023/06/25 00:36:07;;;;;;;5.05;1.35;;;25.60;81.60;;;;;;5114482;27;20204;-84
2023/06/25 00:38:37;;;;;;;0.88;0.85;;;25.50;82.40;;;;;;5099029;27;20653;-83
2023/06/25 00:41:07;;;;;;;1.85;1.45;;;25.40;83.50;;;;;;5112530;27;20633;-83
2023/06/25 00:43:37;;;;;;;0.47;0.47;;;25.30;83.60;;;;;;5108775;27;20188;-82
2023/06/25 00:46:05;;;;;;;1.17;1.02;;;25.30;84.40;;;;;;5099739;27;20260;-84
2023/06/25 00:48:33;;;;;;;2.17;1.02;;;25.20;84.60;;;;;;5108637;28;20277;-83
2023/06/25 00:51:02;;;;;;;2.80;1.15;;;25.20;84.70;;;;;;5096902;28;20189;-84
2023/06/25 00:53:35;;;;;;;1.70;0.80;;;25.10;85.10;;;;;;5100934;28;20192;-84
2023/06/25 00:56:04;;;;;;;1.20;1.05;;;25.10;86.30;;;;;;5096351;27;20333;-83
2023/06/25 00:58:34;;;;;;;1.55;1.45;;;25.00;85.50;;;;;;5104018;28;20280;-84
2023/06/25 01:01:05;;;;;;;0.82;0.75;;;25.00;85.30;;;;;;5102532;27;20741;-81
2023/06/25 01:03:38;;;;;;;1.05;0.85;;;25.00;85.40;;;;;;5106895;28;20241;-82
2023/06/25 01:06:14;;;;;;;0.95;0.93;;;25.00;85.00;;;;;;5104200;28;20595;-82
2023/06/25 01:08:50;;;;;;;8.50;2.03;;;25.00;86.40;;;;;;5116342;28;20637;-82
2023/06/25 01:11:22;;;;;;;0.65;0.65;;;24.80;87.90;;;;;;5105732;27;20188;-83
2023/06/25 01:13:50;;;;;;;1.48;1.05;;;24.80;88.80;;;;;;5115515;27;20189;-82
2023/06/25 01:16:19;;;;;;;2.72;1.42;;;24.80;89.70;;;;;;5103011;27;20193;-82
2023/06/25 01:18:48;;;;;;;0.90;0.90;;;24.70;88.80;;;;;;5106793;27;20672;-83
2023/06/25 01:21:32;;;;;;;1.23;1.13;;;24.70;88.60;;;;;;5117567;27;20196;-83
2023/06/25 01:24:02;;;;;;;0.50;0.50;;;24.60;89.80;;;;;;5114642;27;20557;-84
2023/06/25 01:26:30;;;;;;;0.95;0.65;;;24.60;90.00;;;;;;5121932;27;20317;-83
2023/06/25 01:28:58;;;;;;;2.03;1.50;;;24.60;89.50;;;;;;5135109;27;20200;-82
2023/06/25 01:31:30;;;;;;;1.08;0.85;;;24.60;89.70;;;;;;5123640;27;20197;-83
2023/06/25 01:34:00;;;;;;;0.60;0.40;;;24.60;89.20;;;;;;5121381;27;20280;-83
2023/06/25 01:36:28;;;;;;;0.68;0.50;;;24.60;88.90;;;;;;5103936;27;20197;-82
2023/06/25 01:38:57;;;;;;;1.27;1.15;;;24.60;89.40;;;;;;5120474;27;20277;-82
2023/06/25 01:41:26;;;;;;;2.72;1.42;;;24.60;90.20;;;;;;5104742;27;20201;-83
2023/06/25 01:43:55;;;;;;;2.95;1.88;;;24.60;90.60;;;;;;5107019;27;20199;-83
2023/06/25 01:46:23;;;;;;;1.35;0.85;;;24.60;90.50;;;;;;5106772;27;20252;-84
2023/06/25 01:48:51;;;;;;;0.65;0.65;;;24.60;90.40;;;;;;5108926;27;20288;-82
2023/06/25 01:51:20;;;;;;;6.22;0.85;;;24.60;90.20;;;;;;5110040;27;20200;-83
2023/06/25 01:53:48;;;;;;;0.90;0.65;;;24.60;90.00;;;;;;5107814;27;20183;-83
2023/06/25 01:56:17;;;;;;;1.85;0.52;;;24.60;89.80;;;;;;5102732;27;20220;-83
2023/06/25 01:58:46;;;;;;;0.50;0.50;;;24.60;89.60;;;;;;5112829;28;20657;-82
2023/06/25 02:01:15;;;;;;;1.85;0.88;;;24.60;89.50;;;;;;5115226;27;20193;-82
2023/06/25 02:03:43;;;;;;;1.75;0.65;;;24.60;89.70;;;;;;5121819;27;20201;-82
2023/06/25 02:06:12;;;;;;;0.32;0.32;;;24.60;89.90;;;;;;5122087;27;20262;-82
2023/06/25 02:08:40;;;;;;;1.20;1.05;;;24.60;90.00;;;;;;5097209;27;20204;-83
2023/06/25 02:11:09;;;;;;;0.95;0.95;;;24.60;90.00;;;;;;5109586;27;20250;-83
2023/06/25 02:13:37;;;;;;;2.05;1.25;;;24.60;90.00;;;;;;5100262;27;20202;-83
2023/06/25 02:16:07;;;;;;;1.20;0.60;;;24.60;89.70;;;;;;5094931;27;20194;-83
2023/06/25 02:18:36;;;;;;;0.50;0.47;;;24.60;90.00;;;;;;5104976;27;20189;-83
2023/06/25 02:21:05;;;;;;;0.55;0.47;;;24.60;89.80;;;;;;5113997;27;20566;-83
2023/06/25 02:23:33;;;;;;;0.70;0.70;;;24.60;89.80;;;;;;5119274;27;20225;-82
2023/06/25 02:26:01;;;;;;;2.05;1.17;;;24.60;90.60;;;;;;5110832;27;20224;-83
2023/06/25 02:28:30;;;;;;;2.17;1.13;;;24.60;90.70;;;;;;5116437;27;20188;-82
2023/06/25 02:30:58;;;;;;;0.65;0.65;;;24.60;90.50;;;;;;5111159;27;20280;-82
2023/06/25 02:33:28;;;;;;;1.35;0.82;;;24.60;90.50;;;;;;5122762;27;20220;-82
2023/06/25 02:35:56;;;;;;;1.83;1.58;;;24.60;90.20;;;;;;5106574;27;20197;-82
2023/06/25 02:38:25;;;;;;;1.10;0.93;;;24.60;90.60;;;;;;5123457;27;20669;-81
2023/06/25 02:40:53;;;;;;;0.93;0.68;;;24.60;90.90;;;;;;5119448;27;20192;-82
2023/06/25 02:43:21;;;;;;;1.30;1.20;;;24.60;90.70;;;;;;5114014;27;20188;-82
2023/06/25 02:45:49;;;;;;;0.65;0.65;;;24.60;90.60;;;;;;5109892;27;20711;-81
2023/06/25 02:48:18;;;;;;;0.47;0.47;;;24.60;90.90;;;;;;5103366;27;20208;-84
2023/06/25 02:50:48;;;;;;;0.38;0.38;;;24.60;90.80;;;;;;5095192;28;20284;-82
2023/06/25 02:53:16;;;;;;;0.80;0.80;;;24.60;90.70;;;;;;5106618;28;20193;-84
2023/06/25 02:55:45;;;;;;;0.47;0.47;;;24.60;90.70;;;;;;5094284;27;20199;-83
2023/06/25 02:58:13;;;;;;;0.95;0.68;;;24.60;90.90;;;;;;5116347;27;20196;-84
2023/06/25 03:00:42;;;;;;;3.03;1.17;;;24.60;90.70;;;;;;5115165;27;20451;-82
2023/06/25 03:03:11;;;;;;;1.33;1.23;;;24.60;90.80;;;;;;5096225;27;20217;-83
2023/06/25 03:05:39;;;;;;;0.77;0.73;;;24.60;90.90;;;;;;5118022;27;20260;-83
2023/06/25 03:08:09;;;;;;;3.05;1.20;;;24.60;91.30;;;;;;5108359;27;20649;-83
2023/06/25 03:10:38;;;;;;;1.38;0.88;;;24.60;91.60;;;;;;5114566;27;20202;-82
2023/06/25 03:13:07;;;;;;;0.52;0.47;;;24.60;91.10;;;;;;5113509;27;20621;-82
2023/06/25 03:15:35;;;;;;;1.13;0.68;;;24.60;91.00;;;;;;5105533;28;20185;-82
2023/06/25 03:18:04;;;;;;;1.27;0.93;;;24.60;90.90;;;;;;5106585;27;20198;-81
2023/06/25 03:20:32;;;;;;;0.30;0.30;;;24.60;90.80;;;;;;5101075;27;20192;-82
2023/06/25 03:23:01;;;;;;;0.40;0.40;;;24.70;90.80;;;;;;5101749;27;20196;-83
2023/06/25 03:25:31;;;;;;;0.40;0.40;;;24.70;90.70;;;;;;5098551;27;20194;-83
2023/06/25 03:27:59;;;;;;;1.40;0.88;;;24.70;90.80;;;;;;5113181;27;20645;-83
2023/06/25 03:30:28;;;;;;;0.40;0.40;;;24.70;90.90;;;;;;5094943;28;20208;-83
2023/06/25 03:32:56;;;;;;;0.50;0.50;;;24.70;90.80;;;;;;5093116;28;20189;-84
2023/06/25 03:35:24;;;;;;;4.32;2.03;;;24.70;90.80;;;;;;5101032;27;20630;-82
2023/06/25 03:37:53;;;;;;;0.73;0.65;;;24.70;91.20;;;;;;5107856;27;20193;-82
2023/06/25 03:40:21;;;;;;;1.40;1.30;;;24.70;91.30;;;;;;5096748;28;20193;-82
2023/06/25 03:42:51;;;;;;;4.20;1.20;;;24.80;91.10;;;;;;5105773;27;20205;-82
2023/06/25 03:45:19;;;;;;;0.60;0.60;;;24.80;91.00;;;;;;5099374;28;20217;-82
2023/06/25 03:47:47;;;;;;;0.90;0.90;;;24.80;90.90;;;;;;5099595;28;20708;-82
2023/06/25 03:50:16;;;;;;;0.30;0.30;;;24.80;90.80;;;;;;5109760;27;22000;-82
2023/06/25 03:52:44;;;;;;;1.33;0.80;;;24.80;90.70;;;;;;5103739;27;20193;-82
2023/06/25 03:55:13;;;;;;;0.77;0.77;;;24.90;90.70;;;;;;5103153;27;20676;-80
2023/06/25 03:57:41;;;;;;;4.38;1.38;;;24.90;90.90;;;;;;5099846;28;20658;-82
2023/06/25 04:00:12;;;;;;;0.80;0.80;;;24.90;90.90;;;;;;5089586;28;20220;-82
2023/06/25 04:02:41;;;;;;;2.15;0.70;;;25.00;90.80;;;;;;5094627;27;20192;-83
2023/06/25 04:05:09;;;;;;;0.20;0.20;;;24.90;90.80;;;;;;5105826;27;20213;-82
2023/06/25 04:07:37;;;;;;;1.30;1.13;;;25.00;90.80;;;;;;5108995;27;20224;-81
2023/06/25 04:10:07;;;;;;;6.88;0.93;;;25.00;90.70;;;;;;5089774;28;20540;-82
2023/06/25 04:12:35;;;;;;;0.30;0.30;;;25.00;90.70;;;;;;5088336;28;20197;-81
2023/06/25 04:15:04;;;;;;;1.63;1.23;;;25.00;90.70;;;;;;5093330;27;20197;-81
2023/06/25 04:17:34;;;;;;;0.85;0.80;;;25.00;91.40;;;;;;5093555;27;20189;-82
2023/06/25 04:20:03;;;;;;;2.97;0.90;;;25.00;91.20;;;;;;5097565;27;20221;-83
2023/06/25 04:22:31;;;;;;;0.60;0.60;;;25.00;91.00;;;;;;5089923;28;20200;-82
2023/06/25 04:25:00;;;;;;;0.55;0.55;;;25.10;91.00;;;;;;5106820;27;20205;-81
2023/06/25 04:27:28;;;;;;;2.22;1.52;;;25.10;91.00;;;;;;5094509;28;20212;-82
2023/06/25 04:29:58;;;;;;;0.60;0.60;;;25.10;91.00;;;;;;5090560;28;20288;-82
2023/06/25 04:32:27;;;;;;;4.22;1.17;;;25.10;91.20;;;;;;5101819;28;20199;-84
2023/06/25 04:34:57;;;;;;;1.88;0.88;;;25.10;91.10;;;;;;5111926;27;20185;-83
2023/06/25 04:37:25;;;;;;;8.68;1.30;;;25.20;91.00;;;;;;5098131;28;20645;-82
2023/06/25 04:39:54;;;;;;;0.95;0.95;;;25.20;91.10;;;;;;5104260;27;20193;-84
2023/06/25 04:42:22;;;;;;;0.65;0.65;;;25.20;91.30;;;;;;5100775;28;20446;-81
2023/06/25 04:44:52;;;;;;;0.90;0.50;;;25.30;91.40;;;;;;5106369;28;20608;-81
2023/06/25 04:47:21;;;;;;;1.52;0.98;;;25.30;91.30;;;;;;5096811;28;20224;-83
2023/06/25 04:49:50;;;;;;;0.45;0.45;;;25.30;91.20;;;;;;5111170;27;20249;-83
2023/06/25 04:52:20;;;;;;;1.58;0.70;;;25.40;91.20;;;;;;5097413;27;20268;-83
2023/06/25 04:54:49;;;;;;;1.13;1.02;;;25.40;91.30;;;;;;5104457;27;20197;-83
2023/06/25 04:57:17;;;;;;;1.35;1.23;;;25.40;91.20;;;;;;5099272;27;20594;-83
2023/06/25 04:59:46;;;;;;;0.60;0.60;;;25.40;91.10;;;;;;5102144;27;20190;-83
2023/06/25 05:02:14;;;;;;;0.73;0.73;;;25.50;91.00;;;;;;5099328;27;20209;-84
2023/06/25 05:04:42;;;;;;;1.38;1.02;;;25.50;91.00;;;;;;5106689;27;20194;-83
2023/06/25 05:07:13;;;;;;;2.13;0.80;;;25.60;91.00;;;;;;5108831;28;20216;-83
2023/06/25 05:09:43;;;;;;;0.40;0.40;;;25.60;91.10;;;;;;5115598;28;20806;-81
2023/06/25 05:12:12;;;;;;;1.92;1.55;;;25.70;91.00;;;;;;5114950;27;20197;-83
2023/06/25 05:14:40;;;;;;;5.78;1.02;;;25.80;90.90;;;;;;5103481;28;20189;-81
2023/06/25 05:17:09;;;;;;;1.73;1.42;;;25.80;90.80;;;;;;5105718;28;20599;-84
2023/06/25 05:19:37;;;;;;;0.70;0.63;;;25.90;90.80;;;;;;5112392;28;20192;-83
2023/06/25 05:22:06;;;;;;;1.83;1.38;;;25.90;90.80;;;;;;5099639;27;20244;-84
2023/06/25 05:24:34;;;;;;;0.55;0.55;;;26.00;90.70;;;;;;5105921;28;20207;-90
2023/06/25 05:27:06;;;;;;;1.65;1.48;;;26.00;90.70;;;;;;5101386;27;20300;-83
2023/06/25 05:29:34;;;;;;;1.00;0.77;;;26.10;90.60;;;;;;5097040;27;20196;-83
2023/06/25 05:32:05;;;;;;;2.17;0.70;;;26.20;90.50;;;;;;5107652;27;20197;-82
2023/06/25 05:34:34;;;;;;;4.18;1.58;;;26.20;90.40;;;;;;5116381;27;20227;-84
2023/06/25 05:37:03;;;;;;;0.55;0.52;;;26.30;90.40;;;;;;5100165;27;20197;-81
2023/06/25 05:39:31;;;;;;;0.90;0.60;;;26.30;90.30;;;;;;5108827;28;20208;-83
2023/06/25 05:42:00;;;;;;;0.75;0.57;;;26.40;90.30;;;;;;5109189;28;20189;-83
2023/06/25 05:44:29;;;;;;;1.05;0.95;;;26.40;90.20;;;;;;5114600;28;20189;-83
2023/06/25 05:46:58;;;;;;;0.77;0.70;;;26.50;90.20;;;;;;5107430;28;20192;-83
2023/06/25 05:49:26;;;;;;;1.65;1.00;;;26.50;90.10;;;;;;5111273;28;20718;-83
2023/06/25 05:51:54;;;;;;;1.15;0.68;;;26.60;90.00;;;;;;5106753;28;20653;-84
2023/06/25 05:54:23;;;;;;;0.45;0.45;;;26.70;90.00;;;;;;5114324;28;20682;-83
2023/06/25 05:56:51;;;;;;;1.83;1.48;;;26.80;89.90;;;;;;5098925;28;20197;-83
2023/06/25 05:59:19;;;;;;;1.52;1.15;;;26.80;89.60;;;;;;5113589;27;20197;-83
2023/06/25 06:01:49;;;;;;;0.35;0.35;;;26.80;89.30;;;;;;5104692;28;20199;-83
2023/06/25 06:04:17;;;;;;;0.50;0.40;;;26.90;89.00;;;;;;5110499;28;20202;-82
2023/06/25 06:06:48;;;;;;;2.55;1.02;;;27.00;88.80;;;;;;5101329;28;20274;-82
2023/06/25 06:09:16;;;;;;;2.28;0.80;;;27.10;88.40;;;;;;5113782;28;20262;-82
2023/06/25 06:11:45;;;;;;;0.50;0.50;;;27.10;88.20;;;;;;5107976;28;20204;-83
2023/06/25 06:14:13;;;;;;;0.68;0.40;;;27.20;88.10;;;;;;5113060;28;20197;-85
2023/06/25 06:16:41;;;;;;;2.40;1.15;;;27.20;88.00;;;;;;5102747;28;20196;-84
2023/06/25 06:19:11;;;;;;;1.10;0.50;;;27.30;87.90;;;;;;5102175;28;20192;-83
2023/06/25 06:21:39;;;;;;;1.13;0.70;;;27.30;87.50;;;;;;5102226;28;20200;-81
2023/06/25 06:24:08;;;;;;;0.55;0.55;;;27.40;87.30;;;;;;5107510;28;20198;-83
2023/06/25 06:26:36;;;;;;;0.52;0.52;;;27.40;87.00;;;;;;5094216;28;20197;-83
2023/06/25 06:29:05;;;;;;;1.38;0.93;;;27.50;86.90;;;;;;5098402;28;20240;-83
2023/06/25 06:31:33;;;;;;;1.52;0.65;;;27.50;86.60;;;;;;5100178;28;20189;-83
2023/06/25 06:34:02;;;;;;;1.45;0.77;;;27.60;86.40;;;;;;5094412;28;20198;-82
2023/06/25 06:36:32;;;;;;;0.57;0.50;;;27.60;85.60;;;;;;5100030;28;20232;-83
2023/06/25 06:39:00;;;;;;;0.60;0.60;;;27.70;85.50;;;;;;5104619;28;20194;-82
2023/06/25 06:41:29;;;;;;;0.52;0.52;;;27.70;85.30;;;;;;5110231;27;20625;-82
2023/06/25 06:44:11;;;;;;;1.45;0.93;;;27.70;85.10;;;;;;5104310;28;20201;-82
2023/06/25 06:46:40;;;;;;;0.52;0.50;;;27.70;85.00;;;;;;5102417;28;20189;-81
2023/06/25 06:49:08;;;;;;;1.02;0.88;;;27.80;84.80;;;;;;5101461;28;20235;-82
2023/06/25 06:51:39;;;;;;;0.95;0.68;;;27.80;84.70;;;;;;5109026;28;20224;-83
2023/06/25 06:54:08;;;;;;;2.83;0.40;;;27.90;84.60;;;;;;5111036;28;20184;-83
2023/06/25 06:56:37;;;;;;;0.60;0.60;;;27.90;84.40;;;;;;5102028;28;20446;-81
2023/06/25 06:59:05;;;;;;;0.65;0.47;;;28.00;84.10;;;;;;5100294;28;20414;-83
2023/06/25 07:01:34;;;;;;;0.50;0.50;;;28.00;84.10;;;;;;5105825;28;20221;-82
2023/06/25 07:04:02;;;;;;;1.48;1.00;;;28.10;84.00;;;;;;5113571;28;20182;-82
2023/06/25 07:06:31;;;;;;;0.38;0.38;;;28.20;83.50;;;;;;5108347;28;20232;-82
2023/06/25 07:09:01;;;;;;;2.05;1.15;;;28.20;82.90;;;;;;5098273;28;20223;-83
2023/06/25 07:11:30;;;;;;;0.85;0.80;;;28.30;82.60;;;;;;5105256;28;20185;-83
2023/06/25 07:13:58;;;;;;;0.63;0.63;;;28.30;82.30;;;;;;5104970;28;20709;-81
2023/06/25 07:16:27;;;;;;;0.75;0.75;;;28.40;82.20;;;;;;5098988;28;20200;-83
2023/06/25 07:18:55;;;;;;;2.05;1.05;;;28.40;82.20;;;;;;5109199;28;20534;-83
2023/06/25 07:21:24;;;;;;;0.60;0.57;;;28.50;82.00;;;;;;5106025;28;20244;-84
2023/06/25 07:23:52;;;;;;;0.32;0.32;;;28.50;81.50;;;;;;5112340;28;20664;-83
2023/06/25 07:26:22;;;;;;;1.25;0.75;;;28.60;81.20;;;;;;5095935;28;20193;-82
2023/06/25 07:28:50;;;;;;;0.30;0.30;;;28.70;81.10;;;;;;5111986;28;20225;-83
2023/06/25 07:31:18;;;;;;;1.77;1.00;;;28.70;81.20;;;;;;5098845;28;20193;-84
2023/06/25 07:33:47;;;;;;;0.38;0.38;;;28.80;80.90;;;;;;5097189;27;20196;-83
2023/06/25 07:36:16;;;;;;;0.90;0.82;;;28.90;80.50;;;;;;5109438;27;20207;-86
2023/06/25 07:38:44;;;;;;;2.75;0.80;;;28.90;80.10;;;;;;5110993;27;20203;-84
2023/06/25 07:41:12;;;;;;;2.00;1.33;;;29.00;80.10;;;;;;5110351;27;20197;-84
2023/06/25 07:43:42;;;;;;;0.50;0.50;;;29.00;79.40;;;;;;5101397;28;20197;-84
2023/06/25 07:46:11;;;;;;;0.80;0.68;;;29.10;79.50;;;;;;5099942;28;20201;-85
2023/06/25 07:48:39;;;;;;;0.50;0.40;;;29.10;79.40;;;;;;5112920;28;20248;-84
2023/06/25 07:51:07;;;;;;;0.95;0.85;;;29.20;79.10;;;;;;5107402;28;20190;-83
2023/06/25 07:53:36;;;;;;;0.98;0.85;;;29.20;78.60;;;;;;5106386;28;20205;-85
2023/06/25 07:56:05;;;;;;;1.15;0.80;;;29.30;78.40;;;;;;5096283;28;20212;-84
2023/06/25 07:58:34;;;;;;;0.85;0.60;;;29.30;77.50;;;;;;5104093;27;20228;-85
2023/06/25 08:01:04;;;;;;;0.80;0.70;;;29.40;77.50;;;;;;5109399;27;20664;-84
2023/06/25 08:03:32;;;;;;;1.83;1.00;;;29.50;77.20;;;;;;5100803;28;20193;-84
2023/06/25 08:06:01;;;;;;;2.88;1.08;;;29.60;77.20;;;;;;5095371;27;20698;-82
2023/06/25 08:08:30;;;;;;;0.47;0.47;;;29.70;77.30;;;;;;5105448;27;20676;-84
2023/06/25 08:10:59;;;;;;;1.90;0.63;;;29.80;76.90;;;;;;5105112;27;20211;-81
2023/06/25 08:13:28;;;;;;;2.53;0.75;;;29.80;76.90;;;;;;5099940;28;20197;-82
2023/06/25 08:15:56;;;;;;;1.08;0.98;;;29.90;77.10;;;;;;5102168;27;20198;-82
2023/06/25 08:18:26;;;;;;;0.93;0.88;;;30.00;77.00;;;;;;5098266;27;20580;-83
2023/06/25 08:20:54;;;;;;;0.75;0.60;;;30.10;76.70;;;;;;5092500;27;20200;-82
2023/06/25 08:23:23;;;;;;;1.50;1.23;;;30.20;76.50;;;;;;5090608;28;20193;-82
2023/06/25 08:25:51;;;;;;;0.63;0.63;;;30.20;76.50;;;;;;5091031;28;20280;-82
2023/06/25 08:28:19;;;;;;;1.00;0.52;;;30.30;75.90;;;;;;5105814;28;20193;-82
2023/06/25 08:30:48;;;;;;;0.95;0.85;;;30.30;75.50;;;;;;5088246;28;20205;-81
2023/06/25 08:33:16;;;;;;;1.85;1.02;;;30.30;75.10;;;;;;5108122;28;20189;-82
2023/06/25 08:35:46;;;;;;;1.17;0.73;;;30.40;74.90;;;;;;5107192;28;20189;-82
2023/06/25 08:38:18;;;;;;;0.57;0.57;;;30.40;75.00;;;;;;5111450;28;20589;-82
2023/06/25 08:40:47;;;;;;;0.47;0.38;;;30.40;75.00;;;;;;5099839;28;20196;-83
2023/06/25 08:43:16;;;;;;;0.57;0.50;;;30.40;75.00;;;;;;5105682;28;20199;-83
2023/06/25 08:45:44;;;;;;;4.38;0.80;;;30.30;75.00;;;;;;5104954;28;20207;-83
2023/06/25 08:48:14;;;;;;;0.75;0.55;;;30.30;75.10;;;;;;5111155;28;20658;-83
2023/06/25 08:50:47;;;;;;;0.95;0.95;;;30.30;75.10;;;;;;5110631;28;20585;-83
2023/06/25 08:53:15;;;;;;;0.93;0.53;;;30.30;75.10;;;;;;5105115;28;20437;-83
2023/06/25 08:55:45;;;;;;;0.85;0.85;;;30.30;75.00;;;;;;5094655;28;20665;-82
2023/06/25 08:58:13;;;;;;;0.82;0.75;;;30.20;74.70;;;;;;5094926;28;20191;-83
2023/06/25 09:00:42;;;;;;;0.30;0.30;;;30.20;74.80;;;;;;5099760;28;20213;-83
2023/06/25 09:03:10;;;;;;;0.85;0.63;;;30.20;75.00;;;;;;5097503;28;20208;-85
2023/06/25 09:05:39;;;;;;;1.08;0.98;;;30.10;74.90;;;;;;5106187;28;20236;-83
2023/06/25 09:08:14;;;;;;;1.92;0.65;;;30.10;74.90;;;;;;5105488;28;20193;-83
2023/06/25 09:10:43;;;;;;;0.50;0.43;;;30.10;74.90;;;;;;5100000;28;20696;-84
2023/06/25 09:13:11;;;;;;;2.10;1.23;;;30.00;74.70;;;;;;5104640;28;20193;-82
2023/06/25 09:15:43;;;;;;;1.38;0.82;;;30.10;74.80;;;;;;5090898;28;20599;-83
2023/06/25 09:18:11;;;;;;;0.70;0.63;;;30.10;74.70;;;;;;5092673;28;20201;-82
2023/06/25 09:20:46;;;;;;;0.45;0.45;;;30.10;74.70;;;;;;5103640;28;20204;-82
2023/06/25 09:23:21;;;;;;;0.77;0.50;;;30.10;74.60;;;;;;5100110;28;20189;-82
2023/06/25 09:25:51;;;;;;;2.70;0.50;;;30.10;74.30;;;;;;5088837;28;20638;-80
2023/06/25 09:28:21;;;;;;;0.30;0.30;;;30.00;74.20;;;;;;5096443;28;20658;-83
2023/06/25 09:30:49;;;;;;;0.57;0.57;;;30.00;74.40;;;;;;5104231;28;20249;-83
2023/06/25 09:33:18;;;;;;;0.60;0.60;;;30.00;74.20;;;;;;5104595;28;20189;-86
2023/06/25 09:35:46;;;;;;;0.85;0.50;;;30.00;74.20;;;;;;5111963;27;20208;-81
2023/06/25 09:38:16;;;;;;;0.65;0.63;;;30.00;74.20;;;;;;5114736;27;20193;-82
2023/06/25 09:40:48;;;;;;;1.15;0.80;;;30.00;74.50;;;;;;5101302;27;20658;-81
2023/06/25 09:43:16;;;;;;;0.80;0.77;;;29.90;74.60;;;;;;5099966;28;20189;-81
2023/06/25 09:45:45;;;;;;;1.83;1.15;;;29.90;74.90;;;;;;5098103;28;20606;-81
2023/06/25 09:48:14;;;;;;;0.50;0.50;;;29.90;75.70;;;;;;5107760;27;20258;-81
2023/06/25 09:50:46;;;;;;;1.17;1.08;;;29.80;74.70;;;;;;5092113;28;20212;-82
2023/06/25 09:53:22;;;;;;;0.90;0.60;;;29.80;74.90;;;;;;5093749;28;20196;-83
2023/06/25 09:55:53;;;;;;;0.80;0.80;;;29.70;75.10;;;;;;5104137;27;20181;-82
2023/06/25 09:58:23;;;;;;;1.20;1.10;;;29.70;75.20;;;;;;5109369;27;20646;-81
2023/06/25 10:00:51;;;;;;;2.13;0.82;;;29.70;75.20;;;;;;5102784;28;20661;-82
2023/06/25 10:03:20;;;;;;;2.22;1.17;;;29.70;75.40;;;;;;5109205;28;20193;-83
2023/06/25 10:05:51;;;;;;;4.80;0.75;;;29.70;75.40;;;;;;5108799;27;20262;-83
2023/06/25 10:08:20;;;;;;;0.93;0.60;;;29.80;75.30;;;;;;5097368;28;20240;-83
2023/06/25 10:10:59;;;;;;;2.10;0.50;;;29.70;75.40;;;;;;5100769;27;20213;-83
2023/06/25 10:13:28;;;;;;;0.50;0.50;;;29.70;75.50;;;;;;5103112;28;20192;-81
2023/06/25 10:16:00;;;;;;;0.30;0.30;;;29.70;75.40;;;;;;5111976;27;20193;-83
2023/06/25 10:18:29;;;;;;;1.20;1.10;;;29.80;75.60;;;;;;5117275;27;20203;-83
2023/06/25 10:20:59;;;;;;;0.50;0.40;;;29.80;75.60;;;;;;5097346;27;20196;-84
2023/06/25 10:23:30;;;;;;;0.40;0.40;;;29.80;75.50;;;;;;5108314;27;20185;-83
2023/06/25 10:26:00;;;;;;;0.68;0.60;;;29.80;75.30;;;;;;5098829;27;20191;-80
2023/06/25 10:28:30;;;;;;;0.38;0.38;;;29.80;75.20;;;;;;5103429;27;20197;-83
2023/06/25 10:31:12;;;;;;;1.52;1.23;;;29.80;75.30;;;;;;5100377;28;20212;-82
2023/06/25 10:33:42;;;;;;;2.90;0.85;;;29.90;75.40;;;;;;5103932;28;20181;-82
2023/06/25 10:36:11;;;;;;;0.63;0.63;;;30.00;75.40;;;;;;5093362;28;20603;-81
2023/06/25 10:38:39;;;;;;;0.80;0.80;;;30.00;75.10;;;;;;5103705;27;20655;-84
2023/06/25 10:41:09;;;;;;;0.75;0.55;;;30.10;74.90;;;;;;5098522;28;20193;-83
2023/06/25 10:43:38;;;;;;;4.68;1.60;;;30.30;75.00;;;;;;5104213;28;20221;-83
2023/06/25 10:46:06;;;;;;;1.38;1.00;;;30.40;74.80;;;;;;5100539;28;20501;-83
2023/06/25 10:48:35;;;;;;;1.17;0.68;;;30.50;74.60;;;;;;5097233;28;20189;-83
2023/06/25 10:51:03;;;;;;;0.73;0.63;;;30.60;74.30;;;;;;5098528;28;20216;-83
2023/06/25 10:53:32;;;;;;;1.05;0.95;;;30.80;74.20;;;;;;5106521;27;20188;-82
2023/06/25 10:56:00;;;;;;;0.75;0.50;;;30.90;73.60;;;;;;5099731;28;20194;-82
2023/06/25 10:58:30;;;;;;;1.98;1.20;;;31.00;73.20;;;;;;5104790;27;20192;-83
2023/06/25 11:01:00;;;;;;;0.55;0.55;;;31.10;72.60;;;;;;5107973;27;20251;-81
2023/06/25 11:03:35;;;;;;;1.02;0.90;;;31.30;71.80;;;;;;5101645;27;20219;-82
2023/06/25 11:06:05;;;;;;;0.73;0.70;;;31.40;71.30;;;;;;5110103;27;20271;-81
2023/06/25 11:08:33;;;;;;;1.35;0.90;;;31.50;71.10;;;;;;5093834;28;20212;-82
2023/06/25 11:11:03;;;;;;;2.00;0.60;;;31.60;71.10;;;;;;5101623;27;20220;-82
2023/06/25 11:13:34;;;;;;;2.58;1.08;;;31.70;70.60;;;;;;5092472;28;20198;-84
2023/06/25 11:16:04;;;;;;;4.78;1.08;;;31.80;70.50;;;;;;5097924;27;20191;-83
2023/06/25 11:18:33;;;;;;;0.65;0.65;;;31.80;69.40;;;;;;5111975;27;20185;-82
2023/06/25 11:21:05;;;;;;;0.50;0.50;;;31.80;69.20;;;;;;5095298;27;20272;-82
2023/06/25 11:23:33;;;;;;;1.58;1.23;;;31.90;69.50;;;;;;5105026;27;20288;-82
2023/06/25 11:26:03;;;;;;;1.10;0.80;;;32.00;68.80;;;;;;5098423;27;21999;-82
2023/06/25 11:28:38;;;;;;;1.30;0.50;;;32.00;68.40;;;;;;5105552;27;20213;-83
2023/06/25 11:31:06;;;;;;;0.65;0.55;;;32.00;68.10;;;;;;5098047;28;20209;-84
2023/06/25 11:33:35;;;;;;;0.73;0.60;;;32.10;68.40;;;;;;5097256;28;20196;-82
2023/06/25 11:36:09;;;;;;;26.05;3.00;;;32.10;68.20;;;;;;5101437;28;20272;-82
2023/06/25 11:38:37;;;;;;;1.30;0.60;;;32.20;68.20;;;;;;5103946;27;20190;-83
2023/06/25 11:41:07;;;;;;;0.60;0.60;;;32.20;68.40;;;;;;5096035;27;20263;-83
2023/06/25 11:43:35;;;;;;;1.63;0.73;;;32.30;68.70;;;;;;5092549;28;20199;-84
2023/06/25 11:46:06;;;;;;;1.23;1.13;;;32.30;68.60;;;;;;5097837;27;20186;-83
2023/06/25 11:48:34;;;;;;;0.63;0.50;;;32.40;68.50;;;;;;5100421;27;20192;-84
2023/06/25 11:51:07;;;;;;;1.55;0.70;;;32.40;68.40;;;;;;5097607;27;20213;-83
2023/06/25 11:53:35;;;;;;;1.70;0.88;;;32.40;67.90;;;;;;5090627;28;20215;-84
2023/06/25 11:56:04;;;;;;;1.40;0.80;;;32.20;67.20;;;;;;5091550;27;20279;-82
2023/06/25 11:58:32;;;;;;;0.40;0.40;;;32.30;67.20;;;;;;5100774;27;20185;-83
2023/06/25 12:01:01;;;;;;;0.50;0.50;;;32.10;66.70;;;;;;5095014;28;20198;-84
2023/06/25 12:03:31;;;;;;;9.13;1.25;;;32.20;66.30;;;;;;5098054;27;20185;-84
2023/06/25 12:05:59;;;;;;;1.10;1.00;;;32.20;66.70;;;;;;5100363;27;20217;-84
2023/06/25 12:08:28;;;;;;;1.65;0.80;;;32.20;67.10;;;;;;5102241;28;20193;-84
2023/06/25 12:10:56;;;;;;;1.23;1.13;;;32.20;67.30;;;;;;5096480;28;20217;-83
2023/06/25 12:13:25;;;;;;;0.73;0.73;;;32.10;66.30;;;;;;5103488;28;20202;-84
2023/06/25 12:15:53;;;;;;;4.13;2.25;;;32.10;66.30;;;;;;5099517;27;20326;-84
2023/06/25 12:18:22;;;;;;;0.47;0.47;;;32.00;66.60;;;;;;5114672;27;20208;-82
2023/06/25 12:20:52;;;;;;;0.55;0.55;;;31.90;66.10;;;;;;5101441;28;20225;-82
2023/06/25 12:23:20;;;;;;;1.23;1.05;;;31.70;66.10;;;;;;5100333;28;20201;-84
2023/06/25 12:25:49;;;;;;;3.72;0.55;;;31.60;66.30;;;;;;5091631;28;20186;-83
2023/06/25 12:28:17;;;;;;;1.77;0.98;;;31.30;62.60;;;;;;5114608;27;20263;-83
2023/06/25 12:30:45;;;;;;;0.52;0.52;;;31.10;61.40;;;;;;5104240;28;20221;-82
2023/06/25 12:33:14;;;;;;;0.40;0.40;;;30.80;61.20;;;;;;5099256;28;20623;-83
2023/06/25 12:35:42;;;;;;;1.65;1.27;;;30.60;62.10;;;;;;5089287;28;20185;-83
2023/06/25 12:38:12;;;;;;;0.30;0.30;;;30.30;62.80;;;;;;5097930;27;20202;-82
2023/06/25 12:40:40;;;;;;;0.52;0.52;;;30.00;63.80;;;;;;5103398;27;20191;-83
2023/06/25 12:43:09;;;;;;;1.08;0.50;;;29.70;67.30;;;;;;5099022;28;20211;-82
2023/06/25 12:45:37;;;;;;;1.08;0.57;;;29.60;69.30;;;;;;5092770;27;20281;-82
2023/06/25 12:48:06;;;;;;;4.20;1.33;;;29.20;71.80;;;;;;5101765;28;20649;-83
2023/06/25 12:50:35;;;;;;;0.20;0.20;;;29.00;73.10;;;;;;5103247;28;20258;-84
2023/06/25 12:53:03;;;;;;;4.28;0.80;;;28.60;73.80;;;;;;5091052;28;20203;-83
2023/06/25 12:55:33;;;;;;;0.93;0.93;;;28.40;74.50;;;;;;5093110;28;20197;-81
2023/06/25 12:58:01;;;;;;;8.68;0.68;;;28.20;75.00;;;;;;5103018;28;20196;-82